WI47 weather

Timberline Airport
Scandinavia, Wisconsin, United States

Public forecast

Using degrees Fahrenheit for public forecast. Weather courtesy of forecast.io.

Closest aviation weather report (METAR) to Timberline Airport

Closest report is Waupaca Municipal Airport, 8.2 nm (15.2 km) SE. Retrieved 2019/10/15 06:35 UTC (0 seconds ago):

KPCZ 150635Z AUTO 00000KT 10SM CLR 01/00 A3002 RMK AO2 T00110001

Closest aviation forecast (TAF) to Timberline Airport

Closest forecast is Appleton International Airport, 29.1 nm (53.8 km) ESE. Retrieved 2019/10/15 06:22 UTC (0 seconds ago):

TAF KATW 150520Z 1506/1606 16004KT P6SM BKN120 FM151100 16009G14KT 6SM -RA BKN040 WS014/17035KT FM151500 19011G21KT 5SM -SHRA OVC024 FM151800 23012G20KT 4SM -SHRA BKN017 FM152100 26012G21KT P6SM OVC022 FM160100 29012G21KT P6SM OVC017